Capo Vado — IPWV — position and weather

sailwx.info

Track history (hours):
 
Tides and Currents Weather Stations Pressure Air Temp Water Temp Dewpoint Dewpoint Depression Visibility Wind Speed Wind Dir Waves Ship Positions

Capo Vado

Last reported at 2016-Feb-07 03:34 UTC. Time now 2016-Feb-07 03:56 UTC.
Position N 44°18' E 008°29'.

Length 30 m.

Type: Tug. MMSI: 247228400.

Date/timePositionNaut miles runAvg speedWind from/ knotsBaromVisibWave heightAir tempDewpointWater temp
2016-Feb-07 03:34N 44°18' E 008°29'0 0.0
2016-Feb-07 02:34N 44°18' E 008°29'0 0.0
2016-Feb-07 01:34N 44°18' E 008°29'0 0.0
2016-Feb-07 00:34N 44°18' E 008°29'0 0.0
2016-Feb-06 23:33N 44°18' E 008°29'0 0.0
2016-Feb-06 22:33N 44°18' E 008°29'0 0.0
2016-Feb-06 21:33N 44°18' E 008°29'0 0.0
2016-Feb-06 20:34N 44°18' E 008°29'0 0.0
2016-Feb-06 19:34N 44°18' E 008°29'0 0.0
2016-Feb-06 18:33N 44°18' E 008°29'0 0.0
2016-Feb-06 17:33N 44°18' E 008°29'0 0.0
2016-Feb-06 16:33N 44°18' E 008°29'0 0.0
2016-Feb-06 15:34N 44°18' E 008°29'0 0.0
2016-Feb-06 14:34N 44°18' E 008°29'0 0.0
2016-Feb-06 13:33N 44°18' E 008°29'0 0.0
2016-Feb-06 12:33N 44°18' E 008°29'0 0.0
2016-Feb-06 11:34N 44°18' E 008°29'0 0.0
2016-Feb-06 10:33N 44°18' E 008°29'0 0.0
2016-Feb-06 09:34N 44°18' E 008°29'0 0.0
2016-Feb-06 08:33N 44°18' E 008°29'0 0.0
2016-Feb-06 07:33N 44°18' E 008°29'0 0.0
2016-Feb-06 06:33N 44°18' E 008°29'0 0.0
2016-Feb-06 05:34N 44°18' E 008°29'0 0.0
2016-Feb-06 04:34N 44°18' E 008°29'0 0.0
2016-Feb-06 03:33N 44°18' E 008°29'0 0.0
2016-Feb-06 02:33N 44°18' E 008°29'0 0.0
2016-Feb-06 01:33N 44°18' E 008°29'0 0.0
2016-Feb-06 00:34N 44°18' E 008°29'0 0.0
2016-Feb-05 23:33N 44°18' E 008°29'0 0.0
2016-Feb-05 22:33N 44°18' E 008°29'0 0.0
2016-Feb-05 21:33N 44°18' E 008°29'0 0.0
2016-Feb-05 20:33N 44°18' E 008°29'0 0.0
2016-Feb-05 19:33N 44°18' E 008°29'0 0.0
2016-Feb-05 18:33N 44°18' E 008°29'0 0.0
2016-Feb-05 17:33N 44°18' E 008°29'1 0.7
2016-Feb-05 16:33N 44°18' E 008°29'1 1.4
2016-Feb-05 15:34N 44°17' E 008°28'0 0.4
2016-Feb-05 14:34N 44°17' E 008°28'2 1.7
2016-Feb-05 13:33N 44°18' E 008°29'0 0.0
2016-Feb-05 12:34N 44°18' E 008°29'0 0.0
2016-Feb-05 11:33N 44°18' E 008°29'0 0.0
2016-Feb-05 10:34N 44°18' E 008°29'0 0.0
2016-Feb-05 09:34N 44°18' E 008°29'0 0.0
2016-Feb-05 08:33N 44°18' E 008°29'0 0.0
2016-Feb-05 07:33N 44°18' E 008°29'0 0.1
2016-Feb-05 06:34N 44°19' E 008°29'2 2.4
2016-Feb-05 05:33N 44°16' E 008°28'2 2.1
2016-Feb-05 04:29N 44°18' E 008°29'0 0.0
2016-Feb-05 03:29N 44°18' E 008°29'0 0.0
2016-Feb-05 02:29N 44°18' E 008°29'0 0.0
2016-Feb-05 01:29N 44°18' E 008°29'0 0.0
2016-Feb-05 00:23N 44°18' E 008°29'0 0.0
2016-Feb-04 23:32N 44°18' E 008°29'0 0.0
2016-Feb-04 22:29N 44°18' E 008°29'0 0.0
2016-Feb-04 21:29N 44°18' E 008°29'0 0.0
2016-Feb-04 20:29N 44°18' E 008°29'0 0.2
2016-Feb-04 19:33N 44°19' E 008°29'0 0.2
2016-Feb-04 18:24N 44°18' E 008°29'0 0.0
2016-Feb-04 17:30N 44°18' E 008°29'0 0.0
2016-Feb-04 16:30N 44°18' E 008°29'0 0.0
2016-Feb-04 15:30N 44°18' E 008°29'0 0.0
2016-Feb-04 14:24N 44°18' E 008°29'0 0.0
2016-Feb-04 13:33N 44°18' E 008°29'0 0.0
2016-Feb-04 12:18N 44°18' E 008°29'0 0.0
2016-Feb-04 11:33N 44°18' E 008°29'0 0.3
2016-Feb-04 10:33N 44°19' E 008°29'2 2.2
2016-Feb-04 09:28N 44°17' E 008°27'0 0.1
2016-Feb-04 08:28N 44°17' E 008°28'1 1.5
2016-Feb-04 07:33N 44°16' E 008°28'4 3.4
2016-Feb-04 06:31N 44°19' E 008°30'1 0.5
2016-Feb-04 05:29N 44°18' E 008°29'0 0.0
2016-Feb-04 04:29N 44°18' E 008°29'0 0.0
2016-Feb-04 03:29N 44°18' E 008°29'0 0.0
2016-Feb-04 02:29N 44°18' E 008°29'0 0.0
2016-Feb-04 01:23N 44°18' E 008°29'0 0.2
2016-Feb-04 00:33N 44°19' E 008°29'1 0.6
2016-Feb-03 23:33N 44°19' E 008°30'0 0.2
2016-Feb-03 22:33N 44°19' E 008°30'1 0.6
2016-Feb-03 21:31N 44°18' E 008°29'0 0.0
2016-Feb-03 20:31N 44°18' E 008°29'0 0.0
2016-Feb-03 19:31N 44°18' E 008°29'0 0.4
2016-Feb-03 18:31N 44°19' E 008°30'0 0.3
2016-Feb-03 17:29N 44°18' E 008°29'0 0.0
2016-Feb-03 16:29N 44°18' E 008°29'0 0.0
2016-Feb-03 15:32N 44°18' E 008°29'0 0.0
2016-Feb-03 14:32N 44°18' E 008°29'0 0.0
2016-Feb-03 06:11N 44°18' E 008°29'1 1.1
2016-Feb-03 05:32N 44°19' E 008°30'  
2016-Jan-31 07:16N 44°19' E 008°29'0 0.0
2016-Jan-31 01:06N 44°18' E 008°29'3 5.5
2016-Jan-31 00:33N 44°16' E 008°27'3 2.7
2016-Jan-30 23:32N 44°18' E 008°30'1 0.0
2016-Jan-30 06:31N 44°19' E 008°29'1 0.9
2016-Jan-30 05:32N 44°19' E 008°30'  
Track history (hours):
 
Tides and Currents Weather Stations Pressure Air Temp Water Temp Dewpoint Dewpoint Depression Visibility Wind Speed Wind Dir Waves Ship Positions

Capo Vado

Last reported at 2016-Feb-07 03:34 UTC. Time now 2016-Feb-07 03:56 UTC.
Position N 44°18' E 008°29'.

Length 30 m.

Type: Tug. MMSI: 247228400.

Date/timePositionNaut miles runAvg speedWind from/ knotsBaromVisibWave heightAir tempDewpointWater temp
2016-Feb-07 03:34N 44°18' E 008°29'0 0.0
2016-Feb-07 02:34N 44°18' E 008°29'0 0.0
2016-Feb-07 01:34N 44°18' E 008°29'0 0.0
2016-Feb-07 00:34N 44°18' E 008°29'0 0.0
2016-Feb-06 23:33N 44°18' E 008°29'0 0.0
2016-Feb-06 22:33N 44°18' E 008°29'0 0.0
2016-Feb-06 21:33N 44°18' E 008°29'0 0.0
2016-Feb-06 20:34N 44°18' E 008°29'0 0.0
2016-Feb-06 19:34N 44°18' E 008°29'0 0.0
2016-Feb-06 18:33N 44°18' E 008°29'0 0.0
2016-Feb-06 17:33N 44°18' E 008°29'0 0.0
2016-Feb-06 16:33N 44°18' E 008°29'0 0.0
2016-Feb-06 15:34N 44°18' E 008°29'0 0.0
2016-Feb-06 14:34N 44°18' E 008°29'0 0.0
2016-Feb-06 13:33N 44°18' E 008°29'0 0.0
2016-Feb-06 12:33N 44°18' E 008°29'0 0.0
2016-Feb-06 11:34N 44°18' E 008°29'0 0.0
2016-Feb-06 10:33N 44°18' E 008°29'0 0.0
2016-Feb-06 09:34N 44°18' E 008°29'0 0.0
2016-Feb-06 08:33N 44°18' E 008°29'0 0.0
2016-Feb-06 07:33N 44°18' E 008°29'0 0.0
2016-Feb-06 06:33N 44°18' E 008°29'0 0.0
2016-Feb-06 05:34N 44°18' E 008°29'0 0.0
2016-Feb-06 04:34N 44°18' E 008°29'0 0.0
2016-Feb-06 03:33N 44°18' E 008°29'0 0.0
2016-Feb-06 02:33N 44°18' E 008°29'0 0.0
2016-Feb-06 01:33N 44°18' E 008°29'0 0.0
2016-Feb-06 00:34N 44°18' E 008°29'0 0.0
2016-Feb-05 23:33N 44°18' E 008°29'0 0.0
2016-Feb-05 22:33N 44°18' E 008°29'0 0.0
2016-Feb-05 21:33N 44°18' E 008°29'0 0.0
2016-Feb-05 20:33N 44°18' E 008°29'0 0.0
2016-Feb-05 19:33N 44°18' E 008°29'0 0.0
2016-Feb-05 18:33N 44°18' E 008°29'0 0.0
2016-Feb-05 17:33N 44°18' E 008°29'1 0.7
2016-Feb-05 16:33N 44°18' E 008°29'1 1.4
2016-Feb-05 15:34N 44°17' E 008°28'0 0.4
2016-Feb-05 14:34N 44°17' E 008°28'2 1.7
2016-Feb-05 13:33N 44°18' E 008°29'0 0.0
2016-Feb-05 12:34N 44°18' E 008°29'0 0.0
2016-Feb-05 11:33N 44°18' E 008°29'0 0.0
2016-Feb-05 10:34N 44°18' E 008°29'0 0.0
2016-Feb-05 09:34N 44°18' E 008°29'0 0.0
2016-Feb-05 08:33N 44°18' E 008°29'0 0.0
2016-Feb-05 07:33N 44°18' E 008°29'0 0.1
2016-Feb-05 06:34N 44°19' E 008°29'2 2.4
2016-Feb-05 05:33N 44°16' E 008°28'2 2.1
2016-Feb-05 04:29N 44°18' E 008°29'0 0.0
2016-Feb-05 03:29N 44°18' E 008°29'0 0.0
2016-Feb-05 02:29N 44°18' E 008°29'0 0.0
2016-Feb-05 01:29N 44°18' E 008°29'0 0.0
2016-Feb-05 00:23N 44°18' E 008°29'0 0.0
2016-Feb-04 23:32N 44°18' E 008°29'0 0.0
2016-Feb-04 22:29N 44°18' E 008°29'0 0.0
2016-Feb-04 21:29N 44°18' E 008°29'0 0.0
2016-Feb-04 20:29N 44°18' E 008°29'0 0.2
2016-Feb-04 19:33N 44°19' E 008°29'0 0.2
2016-Feb-04 18:24N 44°18' E 008°29'0 0.0
2016-Feb-04 17:30N 44°18' E 008°29'0 0.0
2016-Feb-04 16:30N 44°18' E 008°29'0 0.0
2016-Feb-04 15:30N 44°18' E 008°29'0 0.0
2016-Feb-04 14:24N 44°18' E 008°29'0 0.0
2016-Feb-04 13:33N 44°18' E 008°29'0 0.0
2016-Feb-04 12:18N 44°18' E 008°29'0 0.0
2016-Feb-04 11:33N 44°18' E 008°29'0 0.3
2016-Feb-04 10:33N 44°19' E 008°29'2 2.2
2016-Feb-04 09:28N 44°17' E 008°27'0 0.1
2016-Feb-04 08:28N 44°17' E 008°28'1 1.5
2016-Feb-04 07:33N 44°16' E 008°28'4 3.4
2016-Feb-04 06:31N 44°19' E 008°30'1 0.5
2016-Feb-04 05:29N 44°18' E 008°29'0 0.0
2016-Feb-04 04:29N 44°18' E 008°29'0 0.0
2016-Feb-04 03:29N 44°18' E 008°29'0 0.0
2016-Feb-04 02:29N 44°18' E 008°29'0 0.0
2016-Feb-04 01:23N 44°18' E 008°29'0 0.2
2016-Feb-04 00:33N 44°19' E 008°29'1 0.6
2016-Feb-03 23:33N 44°19' E 008°30'0 0.2
2016-Feb-03 22:33N 44°19' E 008°30'1 0.6
2016-Feb-03 21:31N 44°18' E 008°29'0 0.0
2016-Feb-03 20:31N 44°18' E 008°29'0 0.0
2016-Feb-03 19:31N 44°18' E 008°29'0 0.4
2016-Feb-03 18:31N 44°19' E 008°30'0 0.3
2016-Feb-03 17:29N 44°18' E 008°29'0 0.0
2016-Feb-03 16:29N 44°18' E 008°29'0 0.0
2016-Feb-03 15:32N 44°18' E 008°29'0 0.0
2016-Feb-03 14:32N 44°18' E 008°29'0 0.0
2016-Feb-03 06:11N 44°18' E 008°29'1 1.1
2016-Feb-03 05:32N 44°19' E 008°30'  
2016-Jan-31 07:16N 44°19' E 008°29'0 0.0
2016-Jan-31 01:06N 44°18' E 008°29'3 5.5
2016-Jan-31 00:33N 44°16' E 008°27'3 2.7
2016-Jan-30 23:32N 44°18' E 008°30'1 0.0
2016-Jan-30 06:31N 44°19' E 008°29'1 0.9
2016-Jan-30 05:32N 44°19' E 008°30'  

Dump ship's entire track history